createdAt,value
2022-10-13T00:00:42.542Z,31.23
2022-10-13T00:03:10.892Z,31.20
2022-10-13T00:05:42.914Z,29.38
2022-10-13T00:08:13.741Z,31.98
2022-10-13T00:10:47.915Z,31.88
2022-10-13T00:13:18.259Z,31.92
2022-10-13T00:15:48.469Z,32.70
2022-10-13T00:18:17.356Z,31.70
2022-10-13T00:20:47.886Z,29.80
2022-10-13T00:23:16.141Z,33.65
2022-10-13T00:25:44.896Z,34.42
2022-10-13T00:28:13.468Z,32.15
2022-10-13T00:30:43.445Z,31.70
2022-10-13T00:33:13.422Z,29.20
2022-10-13T00:35:43.912Z,31.45
2022-10-13T00:38:12.768Z,28.80
2022-10-13T00:40:48.135Z,28.85
2022-10-13T00:43:20.179Z,30.17
2022-10-13T00:45:50.910Z,30.30
2022-10-13T00:48:26.555Z,30.58
2022-10-13T00:50:55.138Z,29.33
2022-10-13T00:53:26.685Z,30.25
2022-10-13T00:55:55.950Z,29.50
2022-10-13T00:58:31.212Z,29.20
2022-10-13T01:01:00.805Z,27.55
2022-10-13T01:03:29.051Z,29.58
2022-10-13T01:06:01.163Z,28.35
2022-10-13T01:08:30.591Z,29.23
2022-10-13T01:11:08.878Z,27.77
2022-10-13T01:13:43.732Z,28.52
2022-10-13T01:16:18.157Z,29.23
2022-10-13T01:18:55.852Z,30.27
2022-10-13T01:21:29.334Z,29.67
2022-10-13T01:24:31.601Z,27.85
2022-10-13T01:27:14.452Z,27.73
2022-10-13T01:30:03.719Z,27.63
2022-10-13T01:32:52.442Z,27.65
2022-10-13T01:35:25.981Z,27.05
2022-10-13T01:38:00.672Z,26.08
2022-10-13T01:40:35.715Z,24.58
2022-10-13T01:43:09.102Z,24.83
2022-10-13T01:45:42.124Z,26.77
2022-10-13T01:48:14.160Z,24.08
2022-10-13T01:50:47.824Z,25.08
2022-10-13T01:53:18.191Z,24.42
2022-10-13T01:55:54.914Z,24.58
2022-10-13T01:58:24.629Z,23.70
2022-10-13T02:01:22.992Z,23.52
2022-10-13T02:03:59.833Z,23.40
2022-10-13T02:06:33.143Z,22.13
2022-10-13T02:09:05.801Z,22.42
2022-10-13T02:11:33.840Z,21.77
2022-10-13T02:14:08.648Z,21.20
2022-10-13T02:16:40.540Z,21.35
2022-10-13T02:19:13.754Z,21.05
2022-10-13T02:21:42.462Z,21.35
2022-10-13T02:24:13.663Z,21.55
2022-10-13T02:26:42.685Z,21.20
2022-10-13T02:29:14.280Z,21.48
2022-10-13T02:31:44.435Z,21.75
2022-10-13T02:34:12.958Z,20.92
2022-10-13T02:36:41.451Z,20.40
2022-10-13T02:39:11.989Z,20.17
2022-10-13T02:41:40.375Z,20.13
2022-10-13T02:44:08.625Z,20.15
2022-10-13T02:46:43.278Z,19.23
2022-10-13T02:49:13.550Z,19.42
2022-10-13T02:51:41.632Z,20.13
2022-10-13T02:54:09.803Z,20.05
2022-10-13T02:56:37.976Z,19.42
2022-10-13T02:59:06.237Z,19.67
2022-10-13T03:01:35.781Z,19.27
2022-10-13T03:04:05.271Z,19.13
2022-10-13T03:06:35.675Z,17.83
2022-10-13T03:09:06.869Z,20.40
2022-10-13T03:11:35.168Z,19.08
2022-10-13T03:14:03.206Z,19.75
2022-10-13T03:16:33.700Z,18.52
2022-10-13T03:19:01.805Z,19.75
2022-10-13T03:21:31.471Z,20.02
2022-10-13T03:23:59.507Z,19.38
2022-10-13T03:26:27.587Z,22.63
2022-10-13T03:28:55.793Z,20.42
2022-10-13T03:31:23.923Z,21.05
2022-10-13T03:33:52.335Z,20.58
2022-10-13T03:36:20.481Z,21.70
2022-10-13T03:38:51.917Z,20.88
2022-10-13T03:41:20.176Z,20.83
2022-10-13T03:43:51.254Z,20.13
2022-10-13T03:46:19.865Z,20.00
2022-10-13T03:48:50.319Z,22.15
2022-10-13T03:51:20.619Z,21.70
2022-10-13T03:53:53.828Z,20.23
2022-10-13T03:56:25.006Z,21.02
2022-10-13T03:58:55.385Z,21.60
2022-10-13T04:01:24.447Z,21.17
2022-10-13T04:03:55.569Z,20.27
2022-10-13T04:06:24.521Z,21.58
2022-10-13T04:08:54.486Z,20.80
2022-10-13T04:11:23.581Z,20.55
2022-10-13T04:13:57.542Z,20.65
2022-10-13T04:16:28.958Z,20.98
2022-10-13T04:19:00.259Z,22.58
2022-10-13T04:21:30.080Z,21.80
2022-10-13T04:24:02.681Z,19.13
2022-10-13T04:26:33.589Z,21.63
2022-10-13T04:29:09.386Z,20.50
2022-10-13T04:31:38.210Z,21.48
2022-10-13T04:34:07.713Z,20.77
2022-10-13T04:36:37.002Z,22.50
2022-10-13T04:39:06.659Z,22.27
2022-10-13T04:41:34.738Z,22.75
2022-10-13T04:44:03.004Z,21.70
2022-10-13T04:46:31.476Z,22.23
2022-10-13T04:48:59.515Z,21.85
2022-10-13T04:51:33.325Z,22.17
2022-10-13T04:54:05.537Z,21.55
2022-10-13T04:56:35.273Z,21.58
2022-10-13T04:59:05.773Z,21.30
2022-10-13T05:01:38.498Z,20.83
2022-10-13T05:04:11.610Z,20.95
2022-10-13T05:07:05.269Z,22.52
2022-10-13T05:09:33.045Z,22.83
2022-10-13T05:12:10.184Z,22.83
2022-10-13T05:14:38.275Z,20.15
2022-10-13T05:17:08.833Z,21.52
2022-10-13T05:19:42.265Z,22.33
2022-10-13T05:22:10.401Z,23.02
2022-10-13T05:24:42.780Z,23.92
2022-10-13T05:27:14.970Z,22.80
2022-10-13T05:29:46.455Z,23.33
2022-10-13T05:32:17.877Z,22.88
2022-10-13T05:34:48.577Z,24.70
2022-10-13T05:37:18.346Z,23.80
2022-10-13T05:39:48.797Z,23.08
2022-10-13T05:42:18.971Z,22.52
2022-10-13T05:44:47.520Z,21.20
2022-10-13T05:47:15.630Z,22.27
2022-10-13T05:49:46.411Z,24.17
2022-10-13T05:52:14.535Z,24.60
2022-10-13T05:54:46.141Z,24.58
2022-10-13T05:57:18.370Z,23.73
2022-10-13T05:59:53.038Z,24.63
2022-10-13T06:02:23.180Z,23.52
2022-10-13T06:04:55.626Z,24.10
2022-10-13T06:07:24.450Z,22.98
2022-10-13T06:09:52.697Z,24.42
2022-10-13T06:12:21.226Z,22.98
2022-10-13T06:14:51.107Z,22.92
2022-10-13T06:17:19.485Z,23.33
2022-10-13T06:19:48.572Z,22.05
2022-10-13T06:22:17.486Z,22.23
2022-10-13T06:24:46.158Z,20.67
2022-10-13T06:27:14.310Z,21.35
2022-10-13T06:29:42.613Z,22.10
2022-10-13T06:32:12.090Z,21.33
2022-10-13T06:34:40.323Z,21.00
2022-10-13T06:37:11.129Z,21.10
2022-10-13T06:39:39.218Z,20.40
2022-10-13T06:42:07.646Z,20.33
2022-10-13T06:44:39.520Z,20.77
2022-10-13T06:47:08.144Z,21.63
2022-10-13T06:49:37.750Z,20.05
2022-10-13T06:52:06.393Z,19.85
2022-10-13T06:54:37.264Z,20.13
2022-10-13T06:57:07.889Z,19.35
2022-10-13T06:59:36.173Z,20.48
2022-10-13T07:02:04.533Z,22.42
2022-10-13T07:04:33.021Z,20.70
2022-10-13T07:07:02.914Z,19.65
2022-10-13T07:09:32.228Z,19.58
2022-10-13T07:12:00.803Z,18.95
2022-10-13T07:14:29.103Z,18.17
2022-10-13T07:16:57.246Z,18.50
2022-10-13T07:19:25.434Z,18.08
2022-10-13T07:21:54.046Z,18.80
2022-10-13T07:24:27.140Z,18.65
2022-10-13T07:26:55.371Z,16.95
2022-10-13T07:29:23.680Z,17.27
2022-10-13T07:31:52.127Z,17.17
2022-10-13T07:34:22.629Z,17.17
2022-10-13T07:36:50.702Z,18.13
2022-10-13T07:39:18.779Z,17.70
2022-10-13T07:41:51.106Z,16.55
2022-10-13T07:44:19.740Z,16.85
2022-10-13T07:46:47.859Z,16.23
2022-10-13T07:49:16.487Z,15.45
2022-10-13T07:51:44.742Z,16.20
2022-10-13T07:54:13.138Z,16.00
2022-10-13T07:56:41.256Z,16.10
2022-10-13T07:59:13.193Z,15.82
2022-10-13T08:01:42.034Z,16.42
2022-10-13T08:04:10.235Z,15.68
2022-10-13T08:06:41.855Z,15.60
2022-10-13T08:09:10.569Z,15.48
2022-10-13T08:11:39.181Z,14.65
2022-10-13T08:14:07.276Z,15.32
2022-10-13T08:16:38.157Z,15.50
2022-10-13T08:19:06.447Z,15.80
2022-10-13T08:21:57.471Z,15.55
2022-10-13T08:24:25.515Z,15.20
2022-10-13T08:26:53.855Z,14.48
2022-10-13T08:29:23.793Z,13.75
2022-10-13T08:31:54.415Z,14.23
2022-10-13T08:34:23.355Z,15.18
2022-10-13T08:36:53.562Z,15.48
2022-10-13T08:39:22.817Z,13.73
2022-10-13T08:41:51.720Z,13.95
2022-10-13T08:45:10.770Z,13.70
2022-10-13T08:47:21.263Z,12.93
2022-10-13T08:49:49.748Z,12.77
2022-10-13T08:52:21.384Z,12.30
2022-10-13T08:54:50.776Z,13.38
2022-10-13T08:57:19.578Z,12.57
2022-10-13T08:59:49.668Z,12.98
2022-10-13T09:02:31.214Z,13.82
2022-10-13T09:05:03.745Z,12.20
2022-10-13T09:07:36.064Z,12.57
2022-10-13T09:10:05.172Z,12.73
2022-10-13T09:12:33.979Z,12.15
2022-10-13T09:15:05.299Z,11.73
2022-10-13T09:17:35.948Z,11.98
2022-10-13T09:20:07.699Z,11.65
2022-10-13T09:22:37.778Z,11.93
2022-10-13T09:25:19.918Z,11.98
2022-10-13T09:27:50.475Z,11.57
2022-10-13T09:30:34.733Z,11.98
2022-10-13T09:33:22.242Z,12.27
2022-10-13T09:36:07.498Z,11.93
2022-10-13T09:38:36.439Z,12.02
2022-10-13T09:41:07.129Z,12.23
2022-10-13T09:43:43.043Z,11.48
2022-10-13T09:46:22.166Z,11.70
2022-10-13T09:48:54.638Z,12.80
2022-10-13T09:51:34.863Z,12.07
2022-10-13T09:54:28.110Z,11.90
2022-10-13T09:57:02.398Z,12.50
2022-10-13T09:59:35.410Z,12.38
2022-10-13T10:02:19.404Z,11.25
2022-10-13T10:04:52.405Z,12.50
2022-10-13T10:07:23.404Z,12.43
2022-10-13T10:09:55.368Z,11.48
2022-10-13T10:12:28.162Z,12.23
2022-10-13T10:14:56.567Z,11.38
2022-10-13T10:17:30.484Z,11.98
2022-10-13T10:20:11.149Z,12.48
2022-10-13T10:22:49.355Z,12.43
2022-10-13T10:25:33.206Z,12.07
2022-10-13T10:28:27.492Z,12.63
2022-10-13T10:31:02.843Z,13.07
2022-10-13T10:33:45.192Z,12.60
2022-10-13T10:36:19.870Z,12.23
2022-10-13T10:38:52.841Z,12.43
2022-10-13T10:41:38.764Z,13.35
2022-10-13T10:44:11.930Z,12.57
2022-10-13T10:46:43.435Z,12.00
2022-10-13T10:49:17.832Z,12.90
2022-10-13T10:51:49.080Z,12.25
2022-10-13T10:54:43.950Z,11.60
2022-10-13T10:57:20.680Z,11.43
2022-10-13T11:00:02.120Z,10.98
2022-10-13T11:02:49.736Z,11.30
2022-10-13T11:05:18.433Z,11.50
2022-10-13T11:07:59.940Z,10.68
2022-10-13T11:10:29.020Z,10.38
2022-10-13T11:13:27.306Z,11.65
2022-10-13T11:15:55.666Z,10.57
2022-10-13T11:18:56.424Z,10.27
2022-10-13T11:22:22.627Z,10.63
2022-10-13T11:25:04.043Z,9.52
2022-10-13T11:27:44.557Z,9.98
2022-10-13T11:30:44.820Z,9.32
2022-10-13T11:33:49.652Z,10.65
2022-10-13T11:36:46.193Z,10.90
2022-10-13T11:39:51.072Z,10.40
2022-10-13T11:45:43.027Z,9.75
2022-10-13T11:48:45.334Z,9.90
2022-10-13T11:51:33.105Z,9.75
2022-10-13T11:54:14.752Z,10.98
2022-10-13T11:56:48.876Z,10.05
2022-10-13T11:59:23.162Z,10.38
2022-10-13T12:01:56.841Z,10.55
2022-10-13T12:04:27.169Z,10.43
2022-10-13T12:07:01.792Z,11.32
2022-10-13T12:09:32.504Z,10.98
2022-10-13T12:12:04.215Z,11.10
2022-10-13T12:17:23.826Z,11.10
2022-10-13T12:19:54.266Z,13.02
2022-10-13T12:22:23.086Z,12.35
2022-10-13T12:25:03.162Z,11.43
2022-10-13T12:27:33.567Z,10.32
2022-10-13T12:30:04.381Z,11.05
2022-10-13T12:32:35.929Z,11.55
2022-10-13T12:35:19.414Z,12.63
2022-10-13T12:37:48.094Z,11.50
2022-10-13T12:40:17.683Z,10.90
2022-10-13T12:42:46.660Z,10.93
2022-10-13T12:45:17.306Z,11.10
2022-10-13T12:47:51.836Z,11.27
2022-10-13T12:50:38.147Z,11.05
2022-10-13T12:53:30.184Z,9.90
2022-10-13T12:56:00.729Z,10.73
2022-10-13T12:58:32.018Z,11.10
2022-10-13T13:01:21.646Z,11.45
2022-10-13T13:03:56.312Z,10.90
2022-10-13T13:06:37.501Z,11.50
2022-10-13T13:09:30.779Z,11.15
2022-10-13T13:12:22.717Z,11.20
2022-10-13T13:14:54.709Z,11.50
2022-10-13T13:17:45.795Z,10.70
2022-10-13T13:20:28.611Z,11.23
2022-10-13T13:22:57.119Z,10.68
2022-10-13T13:25:25.654Z,11.95
2022-10-13T13:27:54.303Z,11.02
2022-10-13T13:30:24.742Z,11.05
2022-10-13T13:32:53.071Z,10.30
2022-10-13T13:35:23.594Z,11.38
2022-10-13T13:37:53.148Z,11.27
2022-10-13T13:40:23.202Z,11.63
2022-10-13T13:42:51.397Z,11.30
2022-10-13T13:45:22.127Z,11.88
2022-10-13T13:47:51.541Z,11.60
2022-10-13T13:50:23.862Z,11.02
2022-10-13T13:52:58.676Z,11.95
2022-10-13T13:55:26.993Z,12.90
2022-10-13T13:57:55.161Z,10.70
2022-10-13T14:00:24.941Z,9.75
2022-10-13T14:02:56.775Z,10.45
2022-10-13T14:05:26.599Z,9.18
2022-10-13T14:07:57.624Z,9.68
2022-10-13T14:10:27.167Z,10.13
2022-10-13T14:12:55.221Z,10.18
2022-10-13T14:15:27.203Z,9.63
2022-10-13T14:17:57.725Z,10.63
2022-10-13T14:20:27.341Z,10.90
2022-10-13T14:22:55.490Z,10.45
2022-10-13T14:25:23.810Z,10.65
2022-10-13T14:27:52.187Z,10.48
2022-10-13T14:30:21.143Z,9.90
2022-10-13T14:32:49.345Z,10.20
2022-10-13T14:35:17.573Z,9.63
2022-10-13T14:37:47.011Z,9.18
2022-10-13T14:40:15.291Z,9.82
2022-10-13T14:42:43.549Z,9.40
2022-10-13T14:45:16.801Z,9.55
2022-10-13T14:47:46.972Z,9.35
2022-10-13T14:50:15.094Z,9.63
2022-10-13T14:52:44.222Z,10.07
2022-10-13T14:55:13.929Z,9.15
2022-10-13T14:57:44.590Z,9.82
2022-10-13T15:00:13.924Z,9.27
2022-10-13T15:02:42.474Z,9.10
2022-10-13T15:05:11.038Z,8.93
2022-10-13T15:07:42.229Z,9.32
2022-10-13T15:10:10.649Z,9.85
2022-10-13T15:12:40.119Z,9.27
2022-10-13T15:15:09.048Z,9.23
2022-10-13T15:17:38.007Z,7.88
2022-10-13T15:20:07.606Z,9.65
2022-10-13T15:22:35.812Z,8.32
2022-10-13T15:25:07.732Z,8.65
2022-10-13T15:27:41.506Z,8.50
2022-10-13T15:30:15.803Z,8.93
2022-10-13T15:32:43.937Z,9.35
2022-10-13T15:35:12.044Z,8.75
2022-10-13T15:37:42.955Z,9.70
2022-10-13T15:40:12.279Z,9.48
2022-10-13T15:42:40.464Z,8.70
2022-10-13T15:45:11.122Z,9.13
2022-10-13T15:47:41.364Z,8.50
2022-10-13T15:50:11.686Z,9.25
2022-10-13T15:52:40.875Z,8.65
2022-10-13T15:55:11.014Z,9.05
2022-10-13T15:57:41.677Z,8.73
2022-10-13T16:00:13.607Z,8.95
2022-10-13T16:02:45.589Z,9.05
2022-10-13T16:05:14.443Z,8.95
2022-10-13T16:07:43.548Z,9.30
2022-10-13T16:10:13.245Z,10.40
2022-10-13T16:12:48.369Z,11.57
2022-10-13T16:15:20.588Z,9.88
2022-10-13T16:17:52.660Z,8.95
2022-10-13T16:20:21.132Z,9.38
2022-10-13T16:22:49.420Z,9.77
2022-10-13T16:25:17.820Z,9.32
2022-10-13T16:27:46.174Z,10.60
2022-10-13T16:30:14.464Z,10.95
2022-10-13T16:32:42.772Z,10.18
2022-10-13T16:35:12.297Z,9.43
2022-10-13T16:37:40.519Z,8.88
2022-10-13T16:40:09.626Z,9.88
2022-10-13T16:42:37.797Z,9.90
2022-10-13T16:45:07.436Z,9.23
2022-10-13T16:47:35.980Z,10.18
2022-10-13T16:50:09.430Z,9.50
2022-10-13T16:52:39.285Z,9.80
2022-10-13T16:55:08.718Z,10.10
2022-10-13T16:57:39.167Z,10.32
2022-10-13T17:00:08.660Z,10.70
2022-10-13T17:02:36.977Z,9.82
2022-10-13T17:05:05.546Z,11.15
2022-10-13T17:07:33.707Z,10.15
2022-10-13T17:10:04.166Z,9.93
2022-10-13T17:12:32.267Z,10.75
2022-10-13T17:15:00.455Z,10.80
2022-10-13T17:17:29.622Z,10.27
2022-10-13T17:19:57.787Z,10.13
2022-10-13T17:22:26.116Z,9.65
2022-10-13T17:24:54.291Z,10.57
2022-10-13T17:27:24.057Z,10.45
2022-10-13T17:29:53.918Z,10.73
2022-10-13T17:32:22.192Z,10.07
2022-10-13T17:34:53.705Z,10.35
2022-10-13T17:37:22.202Z,10.48
2022-10-13T17:39:50.778Z,10.95
2022-10-13T17:42:19.138Z,11.52
2022-10-13T17:44:51.051Z,10.77
2022-10-13T17:47:19.606Z,9.77
2022-10-13T17:49:48.671Z,10.73
2022-10-13T17:52:17.148Z,10.73
2022-10-13T17:54:45.834Z,12.00
2022-10-13T17:57:14.195Z,12.35
2022-10-13T17:59:42.389Z,10.73
2022-10-13T18:02:12.072Z,10.57
2022-10-13T18:04:40.242Z,11.20
2022-10-13T18:07:08.485Z,11.05
2022-10-13T18:09:36.648Z,11.93
2022-10-13T18:12:05.100Z,10.60
2022-10-13T18:14:33.381Z,10.98
2022-10-13T18:17:01.794Z,11.32
2022-10-13T18:19:31.279Z,11.00
2022-10-13T18:21:59.677Z,11.48
2022-10-13T18:24:28.037Z,11.02
2022-10-13T18:26:56.920Z,11.88
2022-10-13T18:29:25.238Z,11.63
2022-10-13T18:31:56.159Z,12.25
2022-10-13T18:34:24.758Z,10.45
2022-10-13T18:36:55.956Z,10.88
2022-10-13T18:39:26.073Z,11.27
2022-10-13T18:41:55.424Z,11.48
2022-10-13T18:44:25.037Z,11.18
2022-10-13T18:46:56.409Z,13.45
2022-10-13T18:49:30.919Z,12.07
2022-10-13T18:52:01.590Z,10.77
2022-10-13T18:54:30.843Z,11.75
2022-10-13T18:56:59.285Z,10.23
2022-10-13T18:59:27.498Z,11.88
2022-10-13T19:01:55.741Z,10.90
2022-10-13T19:04:26.240Z,11.43
2022-10-13T19:06:54.988Z,11.95
2022-10-13T19:09:25.529Z,11.73
2022-10-13T19:11:56.036Z,11.85
2022-10-13T19:14:25.779Z,12.20
2022-10-13T19:17:01.624Z,12.05
2022-10-13T19:19:31.201Z,11.13
2022-10-13T19:22:02.342Z,11.48
2022-10-13T19:24:32.363Z,11.00
2022-10-13T19:27:00.459Z,12.32
2022-10-13T19:29:30.415Z,12.27
2022-10-13T19:31:58.833Z,11.25
2022-10-13T19:34:27.202Z,12.40
2022-10-13T19:36:59.281Z,11.88
2022-10-13T19:39:28.276Z,11.93
2022-10-13T19:41:58.744Z,12.40
2022-10-13T19:44:26.942Z,12.10
2022-10-13T19:46:55.635Z,12.23
2022-10-13T19:49:26.235Z,12.20
2022-10-13T19:51:54.829Z,13.20
2022-10-13T19:54:23.739Z,12.70
2022-10-13T19:56:52.354Z,12.45
2022-10-13T19:59:22.103Z,12.68
2022-10-13T20:01:50.619Z,13.55
2022-10-13T20:04:20.478Z,13.52
2022-10-13T20:06:48.751Z,11.32
2022-10-13T20:09:17.626Z,11.95
2022-10-13T20:11:47.281Z,12.07
2022-10-13T20:14:16.053Z,11.40
2022-10-13T20:16:45.833Z,12.35
2022-10-13T20:19:16.531Z,11.93
2022-10-13T20:21:47.974Z,12.80
2022-10-13T20:24:16.172Z,11.90
2022-10-13T20:26:44.293Z,12.68
2022-10-13T20:29:12.645Z,14.27
2022-10-13T20:31:41.480Z,13.30
2022-10-13T20:34:12.162Z,14.43
2022-10-13T20:36:40.408Z,13.70
2022-10-13T20:39:09.157Z,13.48
2022-10-13T20:41:37.765Z,15.48
2022-10-13T20:44:06.068Z,14.30
2022-10-13T20:46:34.667Z,14.73
2022-10-13T20:49:11.085Z,13.80
2022-10-13T20:51:44.328Z,14.85
2022-10-13T20:54:13.588Z,14.88
2022-10-13T20:56:42.120Z,15.18
2022-10-13T20:59:12.912Z,13.80
2022-10-13T21:01:43.406Z,13.50
2022-10-13T21:04:12.247Z,15.00
2022-10-13T21:06:43.538Z,13.13
2022-10-13T21:09:12.118Z,13.98
2022-10-13T21:11:43.294Z,13.15
2022-10-13T21:14:14.020Z,13.77
2022-10-13T21:16:42.102Z,13.02
2022-10-13T21:19:10.365Z,13.52
2022-10-13T21:21:40.885Z,12.63
2022-10-13T21:24:11.676Z,13.35
2022-10-13T21:26:42.093Z,13.57
2022-10-13T21:29:14.712Z,12.65
2022-10-13T21:31:42.989Z,12.85
2022-10-13T21:34:12.359Z,13.80
2022-10-13T21:36:44.460Z,13.13
2022-10-13T21:39:16.958Z,13.30
2022-10-13T21:41:45.020Z,13.35
2022-10-13T21:44:14.720Z,12.70
2022-10-13T21:46:42.789Z,12.77
2022-10-13T21:49:11.034Z,11.88
2022-10-13T21:51:41.785Z,13.13
2022-10-13T21:54:11.976Z,12.73
2022-10-13T21:56:42.302Z,11.52
2022-10-13T21:59:13.277Z,13.38
2022-10-13T22:01:41.977Z,12.65
2022-10-13T22:04:14.845Z,12.10
2022-10-13T22:06:43.632Z,12.20
2022-10-13T22:09:12.085Z,12.52
2022-10-13T22:11:42.130Z,12.15
2022-10-13T22:14:13.499Z,11.63
2022-10-13T22:16:43.389Z,11.68
2022-10-13T22:19:12.208Z,10.80
2022-10-13T22:21:45.034Z,10.18
2022-10-13T22:24:15.629Z,10.98
2022-10-13T22:26:46.223Z,10.75
2022-10-13T22:29:16.630Z,10.40
2022-10-13T22:31:44.940Z,10.15
2022-10-13T22:34:15.963Z,11.23
2022-10-13T22:36:45.284Z,10.43
2022-10-13T22:39:14.587Z,10.93
2022-10-13T22:41:44.107Z,10.32
2022-10-13T22:44:12.659Z,10.18
2022-10-13T22:46:41.363Z,10.55
2022-10-13T22:49:14.666Z,10.75
2022-10-13T22:51:46.174Z,10.80
2022-10-13T22:54:16.342Z,10.90
2022-10-13T22:56:45.833Z,10.43
2022-10-13T22:59:14.281Z,10.43
2022-10-13T23:01:42.709Z,11.07
2022-10-13T23:04:13.113Z,10.90
2022-10-13T23:06:42.592Z,9.95
2022-10-13T23:09:13.873Z,9.55
2022-10-13T23:11:48.434Z,9.70
2022-10-13T23:14:27.564Z,9.30
2022-10-13T23:17:01.638Z,10.13
2022-10-13T23:19:34.885Z,9.45
2022-10-13T23:22:10.164Z,10.35
2022-10-13T23:24:43.194Z,9.40
2022-10-13T23:27:20.598Z,9.02
2022-10-13T23:29:57.280Z,10.20
2022-10-13T23:32:29.769Z,8.85
2022-10-13T23:35:01.108Z,9.25
2022-10-13T23:37:35.409Z,9.85
2022-10-13T23:40:05.371Z,9.50
2022-10-13T23:42:33.520Z,9.52
2022-10-13T23:45:05.926Z,10.48
2022-10-13T23:47:37.476Z,8.80
2022-10-13T23:50:06.501Z,8.68
2022-10-13T23:52:34.544Z,9.02
2022-10-13T23:55:02.718Z,9.35
2022-10-13T23:57:31.315Z,8.40
2022-10-13T23:59:59.395Z,8.65
